KDEN

Denver International Airport

Airport
ICAO code
KDEN
IATA Code
DEN
Summary
ICAO Region
NAM
ICAO Territory
Location

Aurora, Colorado

Serving
Denver
Elevation
5431 ft
Coordinates
39° 51' 34" N , 104° 40' 19" W
KCC
Airport RE
Hot and High Operations
Metar
KDEN 130253Z 15010KT 10SM FEW100 BKN140 17/M07 A2999 RMK AO2 SLP101 T01721072 53004

Description

International airport serving the City of Denver, located 23 nm east north east of the city.

SKYbrary Partners:

Safety knowledge contributed by: